createdAt,value
2019-04-21T00:01:26.534Z,68.10
2019-04-21T00:06:48.159Z,72.00
2019-04-21T00:11:55.693Z,76.60
2019-04-21T00:16:51.093Z,82.00
2019-04-21T00:21:53.428Z,85.00
2019-04-21T00:27:10.886Z,86.50
2019-04-21T00:32:10.191Z,87.60
2019-04-21T00:37:16.655Z,88.10
2019-04-21T00:42:30.317Z,89.60
2019-04-21T00:47:36.583Z,89.20
2019-04-21T00:52:51.272Z,90.10
2019-04-21T01:02:59.348Z,91.00
2019-04-21T01:07:57.910Z,91.50
2019-04-21T01:13:13.959Z,91.80
2019-04-21T01:18:10.772Z,91.80
2019-04-21T01:22:57.968Z,91.50
2019-04-21T01:28:18.805Z,92.20
2019-04-21T01:33:34.942Z,92.10
2019-04-21T01:38:35.742Z,92.50
2019-04-21T01:43:37.539Z,92.40
2019-04-21T01:48:40.107Z,92.50
2019-04-21T01:53:55.079Z,92.30
2019-04-21T01:58:48.152Z,92.40
2019-04-21T02:03:59.683Z,92.50
2019-04-21T02:09:10.075Z,92.60
2019-04-21T02:14:19.389Z,92.90
2019-04-21T02:19:16.571Z,93.40
2019-04-21T02:24:40.056Z,93.90
2019-04-21T02:29:37.015Z,94.10
2019-04-21T02:34:50.726Z,94.00
2019-04-21T02:39:57.272Z,94.20
2019-04-21T02:45:06.606Z,94.60
2019-04-21T02:55:11.290Z,94.60
2019-04-21T03:00:26.790Z,94.70
2019-04-21T03:10:51.757Z,95.20
2019-04-21T03:15:47.263Z,95.70
2019-04-21T03:21:00.193Z,95.80
2019-04-21T03:26:00.787Z,95.90
2019-04-21T03:41:26.889Z,96.90
2019-04-21T03:46:29.617Z,97.10
2019-04-21T03:56:52.119Z,97.20
2019-04-21T04:07:31.202Z,96.80
2019-04-21T04:12:26.811Z,97.10
2019-04-21T04:17:32.945Z,97.30
2019-04-21T04:32:53.774Z,97.20
2019-04-21T04:37:57.351Z,96.90
2019-04-21T04:43:11.768Z,96.60
2019-04-21T04:48:13.481Z,96.30
2019-04-21T04:58:29.683Z,96.00
2019-04-21T05:03:44.337Z,95.80
2019-04-21T05:08:56.375Z,95.50
2019-04-21T05:13:51.175Z,95.40
2019-04-21T05:18:55.946Z,95.00
2019-04-21T05:23:44.069Z,94.90
2019-04-21T05:28:44.544Z,95.20
2019-04-21T05:34:03.081Z,95.60
2019-04-21T05:39:14.613Z,94.60
2019-04-21T05:44:29.463Z,94.70
2019-04-21T05:49:36.995Z,93.70
2019-04-21T05:54:44.125Z,92.30
2019-04-21T05:59:43.570Z,91.70
2019-04-21T06:10:02.105Z,91.80
2019-04-21T06:15:00.933Z,91.80
2019-04-21T06:20:07.618Z,91.50
2019-04-21T06:25:43.249Z,91.20
2019-04-21T06:30:19.335Z,90.60
2019-04-21T06:35:58.863Z,89.80
2019-04-21T06:40:51.173Z,89.80
2019-04-21T06:45:54.249Z,89.70
2019-04-21T06:51:01.965Z,88.30
2019-04-21T06:56:09.173Z,87.70
2019-04-21T07:01:11.778Z,86.80
2019-04-21T07:06:13.181Z,86.00
2019-04-21T07:11:21.132Z,84.20
2019-04-21T07:16:28.478Z,84.10
2019-04-21T07:21:29.937Z,83.00
2019-04-21T07:26:36.297Z,84.10
2019-04-21T07:31:47.023Z,80.30
2019-04-21T07:36:59.675Z,79.50
2019-04-21T07:41:44.687Z,77.80
2019-04-21T07:46:52.152Z,77.70
2019-04-21T07:52:24.843Z,77.50
2019-04-21T07:57:19.043Z,76.30
2019-04-21T08:02:30.763Z,75.60
2019-04-21T08:07:48.234Z,72.80
2019-04-21T08:12:36.395Z,70.50
2019-04-21T08:17:48.563Z,62.80
2019-04-21T08:22:51.796Z,50.30
2019-04-21T08:28:01.206Z,43.50
2019-04-21T08:33:07.020Z,40.00
2019-04-21T08:38:08.852Z,36.10
2019-04-21T08:43:21.715Z,35.60
2019-04-21T08:48:16.932Z,34.60
2019-04-21T08:53:24.959Z,32.70
2019-04-21T08:58:57.533Z,31.90
2019-04-21T09:04:03.794Z,29.20
2019-04-21T09:09:14.722Z,26.80
2019-04-21T09:14:13.951Z,24.70
2019-04-21T09:19:20.231Z,23.60
2019-04-21T09:24:31.313Z,25.80
2019-04-21T09:29:21.321Z,23.80
2019-04-21T09:34:23.564Z,23.10
2019-04-21T09:39:24.475Z,21.70
2019-04-21T09:44:33.588Z,20.70
2019-04-21T09:49:35.453Z,20.30
2019-04-21T09:54:48.143Z,19.00
2019-04-21T09:59:53.858Z,18.50
2019-04-21T10:04:50.489Z,18.90
2019-04-21T10:09:54.589Z,18.20
2019-04-21T10:14:59.434Z,17.40
2019-04-21T10:20:05.166Z,16.90
2019-04-21T10:25:10.497Z,17.00
2019-04-21T10:30:16.219Z,17.90
2019-04-21T10:35:21.736Z,18.90
2019-04-21T10:40:25.582Z,18.40
2019-04-21T10:45:30.735Z,17.90
2019-04-21T10:50:34.862Z,17.30
2019-04-21T10:55:54.269Z,17.10
2019-04-21T11:00:46.041Z,17.00
2019-04-21T11:05:50.528Z,18.70
2019-04-21T11:10:54.285Z,19.80
2019-04-21T11:15:59.182Z,20.80
2019-04-21T11:21:03.137Z,20.80
2019-04-21T11:26:06.910Z,18.80
2019-04-21T11:31:11.085Z,18.60
2019-04-21T11:36:15.475Z,17.40
2019-04-21T11:41:19.632Z,17.80
2019-04-21T11:46:24.394Z,17.90
2019-04-21T11:51:28.962Z,17.80
2019-04-21T11:56:32.767Z,18.90
2019-04-21T12:01:36.426Z,20.70
2019-04-21T12:06:45.432Z,22.10
2019-04-21T12:11:45.743Z,20.30
2019-04-21T12:16:50.798Z,19.60
2019-04-21T12:22:05.048Z,20.10
2019-04-21T12:27:00.107Z,21.20
2019-04-21T12:32:22.220Z,19.90
2019-04-21T12:37:26.882Z,18.90
2019-04-21T12:42:30.630Z,19.90
2019-04-21T12:47:34.295Z,19.70
2019-04-21T12:52:38.030Z,19.90
2019-04-21T12:57:41.792Z,20.00
2019-04-21T13:02:45.634Z,19.50
2019-04-21T13:07:49.404Z,18.60
2019-04-21T13:12:54.251Z,18.80
2019-04-21T13:17:58.499Z,19.20
2019-04-21T13:23:03.813Z,19.70
2019-04-21T13:28:10.350Z,18.70
2019-04-21T13:33:15.304Z,18.90
2019-04-21T13:38:29.340Z,19.70
2019-04-21T13:43:25.342Z,19.80
2019-04-21T13:48:30.590Z,19.40
2019-04-21T13:53:36.177Z,20.70
2019-04-21T13:58:40.264Z,21.60
2019-04-21T14:03:44.088Z,20.50
2019-04-21T14:08:49.142Z,20.20
2019-04-21T14:13:54.389Z,19.80
2019-04-21T14:18:59.197Z,21.10
2019-04-21T14:24:02.858Z,21.50
2019-04-21T14:29:07.758Z,21.40
2019-04-21T14:34:12.132Z,21.30
2019-04-21T14:39:16.666Z,21.50
2019-04-21T14:44:20.753Z,22.00
2019-04-21T14:49:44.868Z,22.00
2019-04-21T14:55:08.945Z,21.90
2019-04-21T15:00:15.708Z,21.40
2019-04-21T15:05:19.796Z,22.10
2019-04-21T15:10:26.958Z,22.90
2019-04-21T15:15:54.177Z,22.80
2019-04-21T15:21:05.719Z,22.10
2019-04-21T15:26:14.411Z,22.20
2019-04-21T15:31:42.605Z,22.10
2019-04-21T15:36:50.399Z,21.50
2019-04-21T15:42:06.138Z,22.80
2019-04-21T15:47:14.169Z,21.60
2019-04-21T15:52:25.472Z,23.40
2019-04-21T15:57:52.298Z,23.30
2019-04-21T16:03:04.605Z,23.40
2019-04-21T16:08:12.246Z,24.20
2019-04-21T16:13:19.378Z,25.70
2019-04-21T16:18:29.917Z,26.30
2019-04-21T16:23:36.259Z,25.80
2019-04-21T16:28:41.591Z,27.00
2019-04-21T16:33:47.042Z,26.10
2019-04-21T16:38:51.483Z,25.50
2019-04-21T16:43:55.504Z,26.00
2019-04-21T16:49:00.214Z,25.10
2019-04-21T16:54:24.064Z,26.10
2019-04-21T16:59:34.702Z,26.30
2019-04-21T17:04:38.456Z,26.10
2019-04-21T17:09:42.159Z,26.30
2019-04-21T17:15:03.174Z,27.00
2019-04-21T17:19:54.724Z,27.50
2019-04-21T17:24:58.239Z,27.60
2019-04-21T17:30:02.165Z,27.80
2019-04-21T17:35:08.062Z,28.40
2019-04-21T17:40:13.523Z,28.30
2019-04-21T17:45:17.414Z,29.00
2019-04-21T17:50:41.281Z,30.00
2019-04-21T17:55:53.112Z,31.30
2019-04-21T18:01:12.907Z,31.80
2019-04-21T18:06:10.133Z,33.00
2019-04-21T18:11:12.520Z,34.40
2019-04-21T18:16:20.642Z,35.70
2019-04-21T18:21:22.894Z,37.40
2019-04-21T18:26:37.988Z,38.10
2019-04-21T18:31:39.807Z,38.70
2019-04-21T18:36:48.136Z,39.90
2019-04-21T18:42:31.227Z,40.90
2019-04-21T18:47:58.515Z,40.80
2019-04-21T18:53:03.327Z,41.60
2019-04-21T18:58:01.100Z,42.70
2019-04-21T19:03:09.584Z,43.60
2019-04-21T19:08:26.394Z,44.40
2019-04-21T19:13:44.462Z,45.00
2019-04-21T19:19:10.041Z,44.80
2019-04-21T19:24:15.617Z,45.50
2019-04-21T19:28:53.823Z,46.00
2019-04-21T19:33:48.000Z,45.50
2019-04-21T19:38:55.867Z,47.00
2019-04-21T19:44:07.731Z,47.80
2019-04-21T19:49:21.391Z,48.00
2019-04-21T19:54:13.023Z,49.10
2019-04-21T19:59:11.832Z,49.40
2019-04-21T20:04:14.703Z,50.00
2019-04-21T20:09:37.828Z,51.20
2019-04-21T20:19:30.110Z,53.50
2019-04-21T20:24:35.997Z,53.60
2019-04-21T20:29:57.975Z,53.70
2019-04-21T20:35:09.354Z,54.10
2019-04-21T20:39:59.815Z,53.80
2019-04-21T20:45:31.991Z,53.80
2019-04-21T20:50:18.515Z,54.40
2019-04-21T20:55:19.159Z,55.50
2019-04-21T21:00:31.787Z,55.40
2019-04-21T21:05:37.036Z,57.00
2019-04-21T21:10:38.829Z,57.20
2019-04-21T21:15:51.329Z,57.90
2019-04-21T21:20:54.093Z,59.20
2019-04-21T21:25:59.305Z,59.30
2019-04-21T21:31:04.279Z,59.30
2019-04-21T21:36:09.377Z,60.20
2019-04-21T21:41:07.576Z,61.50
2019-04-21T21:46:10.778Z,63.30
2019-04-21T21:51:15.487Z,65.70
2019-04-21T21:56:14.571Z,68.00
2019-04-21T22:01:21.696Z,70.10
2019-04-21T22:06:34.202Z,73.00
2019-04-21T22:11:31.534Z,76.50
2019-04-21T22:16:43.214Z,79.40
2019-04-21T22:22:01.005Z,80.70
2019-04-21T22:26:47.334Z,81.20
2019-04-21T22:31:52.738Z,82.40
2019-04-21T22:37:16.704Z,83.50
2019-04-21T22:42:11.450Z,84.20
2019-04-21T22:47:16.799Z,85.00
2019-04-21T22:52:18.700Z,85.70
2019-04-21T22:57:23.094Z,85.50
2019-04-21T23:02:29.896Z,86.50
2019-04-21T23:07:32.886Z,87.30
2019-04-21T23:12:39.925Z,89.30
2019-04-21T23:18:02.062Z,87.70
2019-04-21T23:23:05.065Z,87.80
2019-04-21T23:28:06.700Z,87.70
2019-04-21T23:33:06.082Z,88.20
2019-04-21T23:38:06.830Z,89.50
2019-04-21T23:43:16.790Z,90.00
2019-04-21T23:48:29.813Z,90.50
2019-04-21T23:53:21.544Z,90.80
2019-04-21T23:58:28.144Z,91.00
